createdAt,value
2023-02-08T00:00:03.757Z,89.32
2023-02-08T00:01:03.185Z,89.12
2023-02-08T00:02:03.649Z,89.43
2023-02-08T00:03:03.676Z,89.01
2023-02-08T00:04:03.883Z,89.01
2023-02-08T00:05:03.678Z,89.22
2023-02-08T00:06:03.730Z,89.32
2023-02-08T00:07:04.511Z,89.22
2023-02-08T00:08:03.911Z,88.59
2023-02-08T00:09:04.134Z,88.38
2023-02-08T00:10:04.426Z,87.96
2023-02-08T00:11:04.388Z,88.07
2023-02-08T00:12:03.281Z,88.17
2023-02-08T00:13:03.282Z,87.75
2023-02-08T00:14:03.379Z,88.07
2023-02-08T00:15:03.101Z,88.17
2023-02-08T00:16:03.058Z,87.65
2023-02-08T00:17:03.636Z,87.33
2023-02-08T00:18:03.613Z,87.12
2023-02-08T00:19:03.583Z,87.02
2023-02-08T00:20:03.549Z,86.60
2023-02-08T00:21:03.192Z,86.49
2023-02-08T00:22:03.891Z,87.12
2023-02-08T00:23:03.410Z,87.65
2023-02-08T00:24:03.462Z,87.65
2023-02-08T00:25:03.678Z,88.28
2023-02-08T00:26:03.769Z,88.59
2023-02-08T00:27:03.100Z,87.96
2023-02-08T00:28:04.665Z,88.70
2023-02-08T00:29:03.174Z,89.22
2023-02-08T00:30:03.311Z,89.64
2023-02-08T00:31:03.400Z,89.86
2023-02-08T00:32:04.032Z,89.86
2023-02-08T00:33:03.705Z,90.06
2023-02-08T00:34:03.526Z,90.48
2023-02-08T00:35:03.584Z,90.38
2023-02-08T00:36:03.479Z,90.38
2023-02-08T00:37:03.610Z,90.06
2023-02-08T00:38:03.597Z,89.32
2023-02-08T00:39:03.927Z,88.80
2023-02-08T00:40:03.800Z,88.38
2023-02-08T00:41:03.762Z,88.07
2023-02-08T00:42:03.003Z,88.07
2023-02-08T00:43:02.998Z,87.96
2023-02-08T00:44:03.439Z,88.17
2023-02-08T00:45:03.175Z,87.75
2023-02-08T00:46:03.262Z,87.54
2023-02-08T00:47:03.846Z,87.23
2023-02-08T00:48:03.247Z,87.02
2023-02-08T00:49:03.450Z,87.75
2023-02-08T00:50:03.681Z,87.68
2023-02-08T00:51:03.596Z,87.90
2023-02-08T00:52:02.637Z,88.21
2023-02-08T00:53:02.802Z,87.65
2023-02-08T00:54:03.017Z,86.91
2023-02-08T00:55:03.052Z,86.74
2023-02-08T00:56:02.736Z,87.58
2023-02-08T00:57:02.890Z,88.89
2023-02-08T00:58:02.950Z,89.51
2023-02-08T00:59:02.941Z,89.94
2023-02-08T01:00:02.891Z,90.04
2023-02-08T01:01:03.013Z,89.83
2023-02-08T01:02:04.435Z,89.62
2023-02-08T01:03:04.592Z,89.37
2023-02-08T01:04:03.986Z,89.09
2023-02-08T01:05:04.223Z,89.62
2023-02-08T01:06:04.284Z,90.25
2023-02-08T01:07:03.453Z,90.67
2023-02-08T01:08:03.761Z,91.30
2023-02-08T01:09:03.820Z,91.41
2023-02-08T01:10:03.856Z,90.78
2023-02-08T01:11:03.483Z,90.56
2023-02-08T01:12:03.416Z,90.14
2023-02-08T01:13:03.716Z,89.83
2023-02-08T01:14:03.735Z,90.04
2023-02-08T01:15:03.721Z,90.36
2023-02-08T01:16:03.889Z,90.67
2023-02-08T01:17:04.277Z,90.56
2023-02-08T01:18:04.287Z,90.04
2023-02-08T01:19:03.852Z,89.94
2023-02-08T01:20:03.958Z,90.46
2023-02-08T01:21:03.829Z,89.79
2023-02-08T01:22:03.855Z,88.74
2023-02-08T01:23:03.838Z,88.32
2023-02-08T01:24:03.820Z,88.53
2023-02-08T01:25:03.712Z,88.53
2023-02-08T01:26:03.466Z,88.67
2023-02-08T01:27:03.717Z,89.41
2023-02-08T01:28:03.747Z,89.83
2023-02-08T01:29:03.783Z,89.94
2023-02-08T01:30:03.784Z,89.83
2023-02-08T01:31:03.898Z,88.95
2023-02-08T01:32:03.845Z,88.63
2023-02-08T01:33:04.098Z,88.99
2023-02-08T01:34:04.174Z,88.99
2023-02-08T01:35:04.155Z,88.99
2023-02-08T01:36:04.248Z,89.20
2023-02-08T01:37:03.366Z,89.62
2023-02-08T01:38:03.377Z,89.83
2023-02-08T01:39:03.079Z,89.83
2023-02-08T01:40:03.172Z,89.51
2023-02-08T01:41:03.283Z,89.98
2023-02-08T01:42:03.510Z,90.04
2023-02-08T01:43:03.354Z,89.76
2023-02-08T01:44:03.515Z,89.98
2023-02-08T01:45:03.514Z,89.76
2023-02-08T01:46:03.628Z,90.19
2023-02-08T01:47:03.880Z,90.08
2023-02-08T01:48:03.968Z,89.66
2023-02-08T01:49:04.028Z,90.19
2023-02-08T01:50:03.357Z,90.29
2023-02-08T01:51:03.714Z,90.61
2023-02-08T01:52:03.794Z,90.82
2023-02-08T01:53:03.820Z,91.03
2023-02-08T01:54:03.876Z,91.13
2023-02-08T01:55:03.737Z,91.13
2023-02-08T01:56:03.800Z,91.24
2023-02-08T01:57:03.416Z,91.39
2023-02-08T01:58:02.747Z,91.60
2023-02-08T01:59:02.943Z,91.66
2023-02-08T02:00:03.010Z,91.60
2023-02-08T02:01:03.120Z,91.70
2023-02-08T02:02:04.422Z,91.91
2023-02-08T02:03:04.171Z,91.81
2023-02-08T02:04:04.296Z,91.91
2023-02-08T02:05:04.239Z,91.91
2023-02-08T02:06:04.468Z,92.23
2023-02-08T02:07:03.409Z,92.54
2023-02-08T02:08:03.221Z,92.54
2023-02-08T02:09:03.270Z,92.54
2023-02-08T02:10:03.535Z,92.44
2023-02-08T02:11:03.283Z,92.54
2023-02-08T02:12:03.488Z,92.19
2023-02-08T02:13:03.264Z,92.08
2023-02-08T02:14:03.552Z,91.97
2023-02-08T02:15:03.335Z,92.08
2023-02-08T02:16:03.399Z,92.08
2023-02-08T02:17:03.980Z,92.19
2023-02-08T02:18:04.390Z,92.08
2023-02-08T02:19:04.449Z,91.87
2023-02-08T02:20:03.829Z,91.66
2023-02-08T02:21:04.331Z,91.09
2023-02-08T02:22:03.361Z,90.36
2023-02-08T02:23:03.466Z,89.62
2023-02-08T02:24:03.648Z,89.30
2023-02-08T02:25:03.679Z,89.09
2023-02-08T02:26:03.012Z,89.51
2023-02-08T02:27:03.900Z,90.04
2023-02-08T02:28:03.977Z,90.14
2023-02-08T02:29:03.970Z,89.72
2023-02-08T02:30:04.010Z,89.30
2023-02-08T02:31:03.984Z,88.78
2023-02-08T02:32:04.339Z,88.67
2023-02-08T02:33:04.232Z,88.67
2023-02-08T02:34:04.221Z,88.67
2023-02-08T02:35:03.784Z,88.78
2023-02-08T02:36:04.134Z,88.78
2023-02-08T02:37:04.196Z,88.71
2023-02-08T02:38:03.942Z,88.82
2023-02-08T02:39:04.334Z,88.40
2023-02-08T02:40:04.370Z,87.83
2023-02-08T02:41:04.338Z,87.76
2023-02-08T02:42:03.245Z,88.08
2023-02-08T02:43:03.250Z,88.18
2023-02-08T02:44:03.329Z,88.60
2023-02-08T02:45:03.342Z,88.50
2023-02-08T02:46:03.687Z,89.14
2023-02-08T02:47:03.652Z,89.56
2023-02-08T02:48:03.419Z,89.24
2023-02-08T02:49:03.539Z,89.56
2023-02-08T02:50:03.801Z,89.76
2023-02-08T02:51:03.333Z,90.19
2023-02-08T02:52:04.015Z,90.71
2023-02-08T02:53:04.064Z,90.92
2023-02-08T02:54:04.105Z,91.07
2023-02-08T02:55:04.286Z,91.49
2023-02-08T02:56:03.703Z,91.91
2023-02-08T02:57:03.650Z,92.44
2023-02-08T02:58:03.409Z,92.54
2023-02-08T02:59:03.734Z,92.23
2023-02-08T03:00:03.488Z,92.02
2023-02-08T03:01:03.693Z,92.54
2023-02-08T03:02:04.976Z,92.12
2023-02-08T03:03:04.290Z,92.12
2023-02-08T03:04:04.387Z,92.23
2023-02-08T03:05:04.430Z,92.33
2023-02-08T03:06:04.447Z,92.44
2023-02-08T03:07:04.134Z,92.44
2023-02-08T03:08:04.267Z,92.54
2023-02-08T03:09:04.144Z,92.90
2023-02-08T03:10:03.756Z,92.80
2023-02-08T03:11:03.726Z,92.90
2023-02-08T03:12:04.587Z,92.90
2023-02-08T03:13:04.238Z,93.11
2023-02-08T03:14:04.498Z,93.22
2023-02-08T03:15:04.553Z,93.01
2023-02-08T03:16:04.696Z,93.22
2023-02-08T03:17:03.823Z,93.11
2023-02-08T03:18:04.038Z,93.22
2023-02-08T03:19:04.077Z,93.22
2023-02-08T03:20:04.169Z,93.43
2023-02-08T03:21:04.121Z,93.32
2023-02-08T03:22:04.859Z,93.43
2023-02-08T03:23:04.639Z,93.53
2023-02-08T03:24:04.566Z,93.53
2023-02-08T03:25:04.679Z,93.53
2023-02-08T03:26:04.851Z,93.64
2023-02-08T03:27:04.803Z,93.74
2023-02-08T03:28:05.130Z,93.74
2023-02-08T03:29:04.376Z,93.53
2023-02-08T03:30:04.718Z,93.18
2023-02-08T03:31:04.860Z,93.07
2023-02-08T03:32:04.590Z,92.86
2023-02-08T03:33:04.581Z,92.65
2023-02-08T03:34:04.597Z,92.54
2023-02-08T03:35:04.033Z,92.33
2023-02-08T03:36:04.288Z,92.33
2023-02-08T03:37:04.115Z,92.23
2023-02-08T03:38:04.113Z,92.44
2023-02-08T03:39:04.089Z,92.54
2023-02-08T03:40:04.107Z,92.65
2023-02-08T03:41:03.680Z,92.86
2023-02-08T03:42:04.357Z,92.65
2023-02-08T03:43:04.158Z,92.44
2023-02-08T03:44:04.192Z,92.54
2023-02-08T03:45:04.361Z,92.86
2023-02-08T03:46:04.457Z,92.44
2023-02-08T03:47:04.143Z,92.12
2023-02-08T03:48:04.138Z,91.70
2023-02-08T03:49:04.102Z,91.60
2023-02-08T03:50:04.078Z,92.02
2023-02-08T03:51:03.885Z,92.12
2023-02-08T03:52:03.928Z,92.23
2023-02-08T03:53:04.349Z,92.33
2023-02-08T03:54:04.441Z,92.38
2023-02-08T03:55:04.047Z,92.58
2023-02-08T03:56:04.160Z,92.90
2023-02-08T03:57:04.180Z,93.11
2023-02-08T03:58:04.795Z,93.11
2023-02-08T03:59:04.193Z,93.22
2023-02-08T04:00:04.365Z,93.11
2023-02-08T04:01:04.830Z,93.32
2023-02-08T04:02:04.190Z,93.43
2023-02-08T04:03:04.472Z,93.43
2023-02-08T04:04:04.811Z,93.53
2023-02-08T04:05:04.397Z,93.43
2023-02-08T04:06:04.443Z,93.43
2023-02-08T04:07:04.659Z,93.53
2023-02-08T04:08:04.555Z,93.43
2023-02-08T04:09:04.553Z,93.43
2023-02-08T04:10:04.505Z,93.53
2023-02-08T04:11:04.548Z,93.53
2023-02-08T04:12:03.636Z,93.64
2023-02-08T04:13:04.166Z,93.53
2023-02-08T04:14:04.154Z,93.43
2023-02-08T04:15:03.545Z,93.64
2023-02-08T04:16:03.905Z,93.53
2023-02-08T04:17:03.936Z,93.64
2023-02-08T04:18:04.045Z,93.64
2023-02-08T04:19:03.844Z,93.64
2023-02-08T04:20:04.186Z,93.53
2023-02-08T04:21:04.429Z,93.68
2023-02-08T04:22:04.333Z,93.79
2023-02-08T04:23:04.621Z,93.57
2023-02-08T04:24:04.649Z,93.68
2023-02-08T04:25:04.599Z,93.74
2023-02-08T04:26:04.702Z,93.64
2023-02-08T04:27:05.958Z,93.64
2023-02-08T04:28:03.867Z,93.74
2023-02-08T04:29:03.401Z,93.74
2023-02-08T04:30:03.787Z,93.74
2023-02-08T04:31:03.678Z,93.53
2023-02-08T04:32:03.737Z,93.43
2023-02-08T04:33:04.161Z,93.43
2023-02-08T04:34:04.054Z,93.53
2023-02-08T04:35:04.188Z,93.64
2023-02-08T04:36:03.621Z,93.74
2023-02-08T04:37:03.980Z,93.53
2023-02-08T04:38:04.106Z,93.43
2023-02-08T04:39:04.063Z,93.64
2023-02-08T04:40:04.223Z,93.53
2023-02-08T04:41:04.244Z,93.53
2023-02-08T04:42:04.317Z,93.53
2023-02-08T04:43:04.253Z,93.32
2023-02-08T04:44:04.424Z,93.32
2023-02-08T04:45:04.644Z,93.32
2023-02-08T04:46:04.261Z,93.22
2023-02-08T04:47:03.398Z,93.32
2023-02-08T04:48:03.446Z,93.37
2023-02-08T04:49:03.315Z,93.64
2023-02-08T04:50:03.765Z,93.64
2023-02-08T04:51:03.287Z,93.53
2023-02-08T04:52:03.331Z,93.43
2023-02-08T04:53:03.656Z,93.22
2023-02-08T04:54:03.779Z,93.43
2023-02-08T04:55:03.408Z,93.53
2023-02-08T04:56:03.523Z,93.43
2023-02-08T04:57:03.359Z,93.22
2023-02-08T04:58:03.656Z,93.22
2023-02-08T04:59:03.674Z,93.01
2023-02-08T05:00:03.533Z,93.32
2023-02-08T05:01:03.792Z,93.53
2023-02-08T05:02:04.636Z,93.11
2023-02-08T05:03:05.052Z,92.90
2023-02-08T05:04:04.728Z,93.01
2023-02-08T05:05:04.891Z,92.90
2023-02-08T05:06:04.911Z,92.58
2023-02-08T05:07:04.018Z,92.38
2023-02-08T05:08:04.118Z,92.16
2023-02-08T05:09:04.248Z,92.38
2023-02-08T05:10:04.391Z,92.48
2023-02-08T05:11:04.057Z,91.74
2023-02-08T05:12:04.150Z,91.64
2023-02-08T05:13:04.249Z,91.85
2023-02-08T05:14:04.402Z,92.06
2023-02-08T05:15:04.519Z,92.06
2023-02-08T05:16:04.102Z,92.27
2023-02-08T05:17:04.153Z,92.48
2023-02-08T05:18:04.234Z,92.48
2023-02-08T05:19:04.386Z,92.69
2023-02-08T05:20:04.182Z,92.80
2023-02-08T05:21:04.009Z,92.80
2023-02-08T05:22:04.492Z,92.90
2023-02-08T05:23:03.942Z,93.01
2023-02-08T05:24:04.287Z,93.01
2023-02-08T05:25:04.294Z,93.15
2023-02-08T05:26:03.887Z,93.15
2023-02-08T05:27:04.337Z,93.26
2023-02-08T05:28:04.391Z,93.37
2023-02-08T05:29:04.169Z,93.26
2023-02-08T05:30:04.231Z,93.37
2023-02-08T05:31:04.481Z,93.26
2023-02-08T05:32:04.777Z,93.15
2023-02-08T05:33:04.846Z,93.26
2023-02-08T05:34:04.917Z,93.26
2023-02-08T05:35:04.546Z,93.15
2023-02-08T05:36:05.318Z,92.94
2023-02-08T05:37:03.920Z,92.94
2023-02-08T05:38:03.729Z,92.84
2023-02-08T05:39:03.955Z,92.73
2023-02-08T05:40:04.018Z,92.84
2023-02-08T05:41:03.866Z,92.94
2023-02-08T05:42:04.035Z,92.94
2023-02-08T05:43:04.117Z,93.05
2023-02-08T05:44:04.100Z,93.26
2023-02-08T05:45:04.187Z,93.37
2023-02-08T05:46:03.873Z,93.26
2023-02-08T05:47:04.198Z,93.37
2023-02-08T05:48:03.789Z,93.26
2023-02-08T05:49:04.216Z,93.47
2023-02-08T05:50:03.826Z,93.57
2023-02-08T05:51:03.913Z,93.57
2023-02-08T05:52:03.614Z,93.47
2023-02-08T05:53:03.846Z,93.47
2023-02-08T05:54:03.685Z,93.37
2023-02-08T05:55:03.503Z,93.37
2023-02-08T05:56:03.462Z,93.05
2023-02-08T05:57:04.431Z,92.94
2023-02-08T05:58:04.477Z,92.94
2023-02-08T05:59:04.579Z,92.73
2023-02-08T06:00:04.052Z,92.63
2023-02-08T06:01:04.434Z,92.21
2023-02-08T06:02:04.528Z,92.41
2023-02-08T06:03:04.631Z,92.52
2023-02-08T06:04:04.744Z,92.73
2023-02-08T06:05:04.225Z,92.84
2023-02-08T06:06:04.651Z,92.84
2023-02-08T06:07:04.106Z,92.84
2023-02-08T06:08:04.290Z,93.05
2023-02-08T06:09:04.164Z,92.94
2023-02-08T06:10:04.318Z,92.84
2023-02-08T06:11:03.817Z,92.63
2023-02-08T06:12:03.759Z,92.73
2023-02-08T06:13:04.023Z,92.73
2023-02-08T06:14:03.456Z,92.73
2023-02-08T06:15:03.840Z,92.84
2023-02-08T06:16:03.636Z,92.84
2023-02-08T06:17:04.577Z,92.94
2023-02-08T06:18:04.073Z,92.84
2023-02-08T06:19:04.346Z,92.73
2023-02-08T06:20:04.582Z,92.73
2023-02-08T06:21:04.073Z,92.63
2023-02-08T06:22:03.719Z,92.63
2023-02-08T06:23:03.852Z,92.63
2023-02-08T06:24:03.432Z,92.73
2023-02-08T06:25:03.485Z,92.63
2023-02-08T06:26:03.800Z,92.73
2023-02-08T06:27:04.028Z,92.63
2023-02-08T06:28:04.152Z,92.73
2023-02-08T06:29:04.320Z,92.84
2023-02-08T06:30:04.474Z,92.73
2023-02-08T06:31:03.976Z,92.94
2023-02-08T06:32:04.623Z,92.84
2023-02-08T06:33:04.417Z,92.84
2023-02-08T06:34:04.511Z,92.94
2023-02-08T06:35:03.985Z,92.73
2023-02-08T06:36:04.129Z,92.94
2023-02-08T06:37:04.010Z,92.73
2023-02-08T06:38:03.787Z,92.63
2023-02-08T06:39:03.725Z,92.73
2023-02-08T06:40:03.691Z,92.63
2023-02-08T06:41:03.384Z,92.52
2023-02-08T06:42:04.388Z,92.31
2023-02-08T06:43:04.044Z,92.41
2023-02-08T06:44:04.251Z,92.10
2023-02-08T06:45:04.053Z,91.99
2023-02-08T06:46:03.806Z,92.21
2023-02-08T06:47:03.590Z,92.31
2023-02-08T06:48:03.725Z,92.21
2023-02-08T06:49:03.559Z,92.21
2023-02-08T06:50:03.752Z,91.99
2023-02-08T06:51:03.688Z,92.10
2023-02-08T06:52:02.992Z,92.10
2023-02-08T06:53:02.921Z,91.85
2023-02-08T06:54:03.471Z,91.53
2023-02-08T06:55:02.912Z,91.22
2023-02-08T06:56:03.340Z,91.22
2023-02-08T06:57:04.105Z,91.11
2023-02-08T06:58:03.846Z,90.90
2023-02-08T06:59:04.053Z,90.80
2023-02-08T07:00:03.529Z,90.58
2023-02-08T07:01:03.990Z,90.37
2023-02-08T07:02:04.593Z,90.58
2023-02-08T07:03:04.852Z,90.90
2023-02-08T07:04:04.418Z,91.00
2023-02-08T07:05:04.913Z,91.22
2023-02-08T07:06:05.734Z,91.32
2023-02-08T07:07:03.795Z,91.32
2023-02-08T07:08:04.043Z,91.32
2023-02-08T07:09:04.334Z,91.36
2023-02-08T07:10:03.885Z,91.68
2023-02-08T07:11:04.010Z,91.57
2023-02-08T07:12:04.350Z,91.78
2023-02-08T07:13:04.721Z,91.89
2023-02-08T07:14:04.275Z,92.10
2023-02-08T07:15:04.444Z,91.99
2023-02-08T07:16:04.554Z,91.99
2023-02-08T07:17:03.994Z,92.10
2023-02-08T07:18:04.207Z,91.99
2023-02-08T07:19:04.432Z,91.89
2023-02-08T07:20:03.898Z,91.57
2023-02-08T07:21:04.141Z,91.68
2023-02-08T07:22:07.208Z,91.57
2023-02-08T07:23:04.850Z,91.22
2023-02-08T07:24:04.680Z,90.80
2023-02-08T07:25:04.279Z,90.58
2023-02-08T07:26:04.825Z,90.37
2023-02-08T07:27:04.468Z,90.58
2023-02-08T07:28:05.010Z,90.37
2023-02-08T07:29:04.444Z,90.37
2023-02-08T07:30:04.755Z,90.80
2023-02-08T07:31:04.570Z,91.42
2023-02-08T07:32:03.957Z,91.42
2023-02-08T07:33:04.370Z,91.22
2023-02-08T07:34:03.950Z,91.22
2023-02-08T07:35:04.255Z,91.00
2023-02-08T07:36:03.662Z,90.90
2023-02-08T07:37:04.348Z,91.11
2023-02-08T07:38:04.537Z,91.32
2023-02-08T07:39:04.825Z,91.53
2023-02-08T07:40:04.385Z,91.53
2023-02-08T07:41:04.538Z,91.53
2023-02-08T07:42:03.743Z,91.22
2023-02-08T07:43:03.973Z,91.22
2023-02-08T07:44:04.145Z,91.22
2023-02-08T07:45:03.540Z,91.32
2023-02-08T07:46:04.081Z,91.32
2023-02-08T07:47:04.391Z,91.42
2023-02-08T07:48:04.669Z,91.00
2023-02-08T07:49:04.158Z,91.32
2023-02-08T07:50:04.647Z,91.32
2023-02-08T07:51:04.143Z,90.75
2023-02-08T07:52:03.544Z,90.12
2023-02-08T07:53:03.736Z,90.12
2023-02-08T07:54:03.299Z,90.69
2023-02-08T07:55:03.438Z,90.86
2023-02-08T07:56:03.583Z,90.97
2023-02-08T07:57:04.173Z,91.39
2023-02-08T07:58:03.835Z,91.39
2023-02-08T07:59:04.414Z,90.86
2023-02-08T08:00:03.957Z,90.23
2023-02-08T08:01:19.529Z,89.76
2023-02-08T08:02:04.452Z,89.59
2023-02-08T08:03:04.034Z,90.12
2023-02-08T08:04:04.498Z,90.44
2023-02-08T08:05:04.071Z,90.50
2023-02-08T08:06:04.272Z,89.98
2023-02-08T08:07:03.696Z,89.87
2023-02-08T08:08:03.367Z,90.61
2023-02-08T08:09:03.843Z,90.92
2023-02-08T08:10:03.566Z,90.92
2023-02-08T08:11:04.016Z,90.50
2023-02-08T08:12:04.216Z,89.98
2023-02-08T08:13:04.170Z,89.98
2023-02-08T08:14:04.324Z,90.29
2023-02-08T08:15:04.496Z,90.71
2023-02-08T08:16:04.060Z,91.03
2023-02-08T08:17:03.633Z,90.82
2023-02-08T08:18:03.841Z,90.92
2023-02-08T08:19:03.355Z,91.13
2023-02-08T08:20:03.316Z,91.45
2023-02-08T08:21:03.751Z,91.35
2023-02-08T08:22:03.958Z,91.09
2023-02-08T08:23:03.950Z,90.99
2023-02-08T08:24:03.618Z,90.99
2023-02-08T08:25:04.109Z,90.67
2023-02-08T08:26:04.096Z,90.78
2023-02-08T08:27:04.817Z,90.78
2023-02-08T08:28:04.157Z,90.99
2023-02-08T08:29:04.177Z,90.94
2023-02-08T08:30:03.754Z,90.53
2023-02-08T08:31:04.037Z,90.31
2023-02-08T08:32:03.376Z,90.21
2023-02-08T08:33:03.115Z,90.11
2023-02-08T08:34:03.566Z,90.11
2023-02-08T08:35:03.124Z,90.21
2023-02-08T08:36:03.468Z,90.17
2023-02-08T08:37:03.875Z,90.17
2023-02-08T08:38:03.440Z,90.06
2023-02-08T08:39:03.405Z,89.96
2023-02-08T08:40:03.821Z,90.27
2023-02-08T08:41:03.416Z,90.48
2023-02-08T08:42:03.886Z,90.91
2023-02-08T08:43:04.056Z,91.22
2023-02-08T08:44:03.602Z,91.33
2023-02-08T08:45:03.887Z,91.11
2023-02-08T08:46:03.847Z,91.22
2023-02-08T08:47:03.176Z,91.39
2023-02-08T08:48:03.446Z,91.39
2023-02-08T08:49:02.939Z,90.97
2023-02-08T08:50:03.391Z,90.86
2023-02-08T08:51:03.014Z,90.82
2023-02-08T08:52:03.642Z,90.82
2023-02-08T08:53:03.332Z,90.51
2023-02-08T08:54:03.818Z,90.40
2023-02-08T08:55:03.366Z,90.51
2023-02-08T08:56:03.637Z,90.47
2023-02-08T08:58:03.316Z,90.36
2023-02-08T08:59:03.881Z,90.11
2023-02-08T09:00:03.661Z,90.00
2023-02-08T09:01:03.392Z,90.07
2023-02-08T09:02:04.363Z,90.07
2023-02-08T09:03:03.990Z,90.07
2023-02-08T09:04:04.367Z,90.23
2023-02-08T09:05:03.948Z,90.13
2023-02-08T09:06:04.052Z,90.09
2023-02-08T09:07:02.953Z,90.09
2023-02-08T09:08:03.117Z,90.36
2023-02-08T09:09:03.390Z,90.05
2023-02-08T09:10:03.028Z,90.74
2023-02-08T09:11:03.044Z,91.75
2023-02-08T09:12:04.016Z,92.16
2023-02-08T09:13:03.674Z,90.14
2023-02-08T09:14:04.644Z,86.23
2023-02-08T09:15:03.758Z,82.89
2023-02-08T09:16:04.076Z,81.95
2023-02-08T09:17:03.431Z,79.29
2023-02-08T09:18:03.188Z,78.32
2023-02-08T09:19:03.439Z,78.42
2023-02-08T09:20:04.835Z,77.66
2023-02-08T09:21:03.247Z,77.03
2023-02-08T09:22:03.954Z,76.68
2023-02-08T09:23:03.501Z,76.47
2023-02-08T09:24:03.909Z,76.47
2023-02-08T09:25:03.401Z,75.85
2023-02-08T09:26:03.636Z,75.40
2023-02-08T09:27:03.998Z,74.25
2023-02-08T09:28:03.508Z,74.25
2023-02-08T09:29:03.679Z,74.01
2023-02-08T09:30:03.900Z,73.69
2023-02-08T09:31:04.087Z,73.35
2023-02-08T09:32:03.504Z,73.45
2023-02-08T09:33:03.217Z,73.24
2023-02-08T09:34:03.406Z,73.66
2023-02-08T09:35:03.347Z,74.07
2023-02-08T09:36:02.878Z,73.00
2023-02-08T09:37:04.019Z,71.96
2023-02-08T09:38:03.740Z,71.75
2023-02-08T09:39:03.417Z,71.82
2023-02-08T09:40:03.617Z,71.51
2023-02-08T09:41:03.804Z,70.57
2023-02-08T09:42:04.125Z,70.36
2023-02-08T09:43:03.681Z,70.02
2023-02-08T09:44:03.931Z,70.54
2023-02-08T09:45:04.015Z,70.43
2023-02-08T09:46:03.983Z,70.33
2023-02-08T09:47:02.633Z,70.02
2023-02-08T09:48:02.915Z,68.95
2023-02-08T09:49:03.143Z,68.84
2023-02-08T09:50:02.705Z,69.47
2023-02-08T09:51:03.070Z,68.74
2023-02-08T09:52:02.826Z,67.91
2023-02-08T09:53:03.199Z,68.40
2023-02-08T09:54:02.747Z,68.60
2023-02-08T09:55:03.124Z,68.40
2023-02-08T09:56:03.172Z,68.29
2023-02-08T09:57:03.263Z,67.67
2023-02-08T09:58:03.821Z,68.05
2023-02-08T09:59:03.294Z,67.43
2023-02-08T10:00:03.213Z,67.54
2023-02-08T10:01:05.868Z,66.67
2023-02-08T10:02:04.785Z,66.78
2023-02-08T10:03:04.902Z,66.15
2023-02-08T10:04:04.969Z,65.63
2023-02-08T10:05:04.474Z,65.22
2023-02-08T10:06:04.516Z,65.84
2023-02-08T10:07:03.726Z,65.60
2023-02-08T10:08:04.029Z,65.91
2023-02-08T10:09:03.746Z,65.70
2023-02-08T10:10:03.986Z,65.08
2023-02-08T10:11:04.069Z,65.16
2023-02-08T10:12:04.278Z,64.33
2023-02-08T10:13:04.293Z,64.02
2023-02-08T10:14:04.614Z,64.02
2023-02-08T10:15:04.440Z,62.98
2023-02-08T10:16:04.743Z,62.67
2023-02-08T10:17:03.847Z,62.33
2023-02-08T10:18:04.341Z,62.12
2023-02-08T10:19:03.886Z,62.23
2023-02-08T10:20:04.233Z,61.81
2023-02-08T10:21:04.250Z,61.40
2023-02-08T10:22:03.893Z,61.40
2023-02-08T10:23:03.357Z,61.16
2023-02-08T10:24:03.549Z,60.74
2023-02-08T10:25:03.323Z,61.05
2023-02-08T10:26:03.637Z,61.68
2023-02-08T10:27:03.937Z,61.65
2023-02-08T10:28:03.774Z,61.44
2023-02-08T10:29:03.376Z,61.03
2023-02-08T10:30:03.369Z,60.51
2023-02-08T10:31:03.480Z,60.61
2023-02-08T10:32:03.547Z,60.93
2023-02-08T10:33:03.737Z,61.96
2023-02-08T10:34:05.461Z,61.62
2023-02-08T10:35:04.262Z,61.31
2023-02-08T10:36:04.114Z,60.97
2023-02-08T10:37:04.148Z,61.07
2023-02-08T10:38:04.710Z,59.52
2023-02-08T10:39:04.671Z,59.00
2023-02-08T10:40:04.148Z,59.63
2023-02-08T10:41:04.244Z,60.22
2023-02-08T10:42:03.397Z,60.01
2023-02-08T10:43:03.544Z,59.60
2023-02-08T10:44:03.978Z,59.26
2023-02-08T10:45:08.277Z,60.19
2023-02-08T10:46:03.701Z,60.37
2023-02-08T10:47:03.793Z,58.51
2023-02-08T10:48:03.753Z,57.55
2023-02-08T10:49:04.057Z,57.65
2023-02-08T10:50:04.043Z,58.17
2023-02-08T10:51:04.009Z,58.69
2023-02-08T10:52:04.342Z,60.00
2023-02-08T10:53:04.124Z,62.17
2023-02-08T10:54:04.592Z,61.22
2023-02-08T10:55:03.983Z,59.12
2023-02-08T10:56:04.437Z,56.93
2023-02-08T10:57:04.120Z,55.80
2023-02-08T10:58:04.282Z,56.00
2023-02-08T10:59:04.899Z,55.28
2023-02-08T11:00:04.612Z,59.09
2023-02-08T11:01:05.154Z,55.36
2023-02-08T11:02:04.797Z,56.39
2023-02-08T11:03:04.927Z,55.85
2023-02-08T11:04:05.423Z,53.38
2023-02-08T11:05:04.774Z,52.06
2023-02-08T11:06:05.245Z,52.78
2023-02-08T11:07:04.486Z,50.38
2023-02-08T11:08:04.673Z,51.52
2023-02-08T11:09:04.261Z,50.80
2023-02-08T11:10:04.347Z,50.26
2023-02-08T11:11:04.596Z,49.72
2023-02-08T11:12:04.567Z,49.00
2023-02-08T11:13:04.795Z,49.70
2023-02-08T11:14:05.274Z,51.04
2023-02-08T11:15:04.600Z,47.72
2023-02-08T11:16:04.697Z,46.69
2023-02-08T11:17:04.300Z,47.41
2023-02-08T11:18:04.350Z,48.32
2023-02-08T11:19:04.664Z,47.91
2023-02-08T11:20:04.564Z,48.83
2023-02-08T11:21:04.593Z,47.91
2023-02-08T11:22:04.443Z,46.75
2023-02-08T11:23:04.445Z,46.65
2023-02-08T11:24:05.160Z,47.76
2023-02-08T11:25:04.742Z,46.42
2023-02-08T11:26:04.810Z,46.32
2023-02-08T11:27:04.322Z,44.78
2023-02-08T11:28:04.022Z,46.01
2023-02-08T11:29:04.048Z,46.01
2023-02-08T11:30:04.460Z,44.57
2023-02-08T11:31:03.960Z,44.47
2023-02-08T11:32:04.262Z,45.60
2023-02-08T11:33:04.280Z,44.47
2023-02-08T11:34:05.180Z,44.37
2023-02-08T11:35:03.980Z,44.47
2023-02-08T11:36:04.032Z,45.81
2023-02-08T11:37:04.222Z,47.66
2023-02-08T11:38:04.365Z,46.30
2023-02-08T11:39:03.941Z,44.65
2023-02-08T11:40:04.450Z,45.48
2023-02-08T11:41:04.334Z,45.99
2023-02-08T11:42:04.571Z,46.79
2023-02-08T11:43:04.565Z,46.87
2023-02-08T11:44:04.282Z,44.41
2023-02-08T11:45:04.346Z,44.08
2023-02-08T11:46:04.505Z,45.00
2023-02-08T11:47:04.689Z,44.78
2023-02-08T11:48:04.941Z,43.85
2023-02-08T11:49:04.444Z,42.32
2023-02-08T11:50:04.637Z,43.04
2023-02-08T11:51:04.793Z,42.93
2023-02-08T11:52:04.828Z,43.75
2023-02-08T11:53:04.888Z,41.91
2023-02-08T11:54:04.580Z,42.75
2023-02-08T11:55:04.803Z,44.26
2023-02-08T11:56:04.830Z,42.52
2023-02-08T11:57:04.018Z,42.24
2023-02-08T11:58:04.174Z,42.95
2023-02-08T11:59:03.913Z,43.85
2023-02-08T12:00:03.855Z,43.65
2023-02-08T12:01:03.708Z,42.81
2023-02-08T12:02:04.262Z,41.60
2023-02-08T12:03:03.773Z,42.52
2023-02-08T12:04:03.857Z,42.52
2023-02-08T12:05:03.949Z,41.83
2023-02-08T12:06:04.068Z,42.34
2023-02-08T12:07:03.943Z,44.80
2023-02-08T12:08:04.185Z,46.11
2023-02-08T12:09:04.378Z,44.04
2023-02-08T12:10:03.887Z,42.79
2023-02-08T12:11:04.290Z,41.75
2023-02-08T12:12:03.759Z,40.93
2023-02-08T12:13:03.711Z,42.26
2023-02-08T12:14:03.902Z,42.96
2023-02-08T12:15:03.305Z,39.99
2023-02-08T12:16:04.265Z,40.62
2023-02-08T12:17:03.773Z,41.13
2023-02-08T12:18:03.529Z,40.83
2023-02-08T12:19:03.469Z,40.42
2023-02-08T12:20:03.647Z,40.60
2023-02-08T12:21:03.545Z,39.78
2023-02-08T12:22:03.820Z,40.81
2023-02-08T12:23:03.711Z,41.52
2023-02-08T12:24:03.994Z,40.09
2023-02-08T12:25:03.565Z,38.64
2023-02-08T12:26:03.930Z,40.69
2023-02-08T12:27:04.423Z,38.23
2023-02-08T12:28:04.528Z,39.05
2023-02-08T12:29:04.624Z,39.05
2023-02-08T12:30:04.069Z,39.26
2023-02-08T12:31:04.650Z,39.26
2023-02-08T12:32:03.554Z,38.42
2023-02-08T12:33:03.614Z,38.21
2023-02-08T12:34:03.503Z,37.40
2023-02-08T12:35:03.422Z,38.32
2023-02-08T12:36:05.259Z,38.52
2023-02-08T12:37:03.578Z,38.20
2023-02-08T12:38:03.655Z,37.79
2023-02-08T12:39:17.849Z,38.71
2023-02-08T12:40:03.548Z,37.38
2023-02-08T12:41:03.711Z,37.99
2023-02-08T12:42:03.920Z,36.66
2023-02-08T12:43:03.786Z,36.05
2023-02-08T12:44:03.848Z,37.29
2023-02-08T12:45:03.912Z,36.88
2023-02-08T12:46:03.795Z,36.19
2023-02-08T12:47:03.623Z,37.31
2023-02-08T12:48:04.616Z,37.72
2023-02-08T12:49:03.408Z,36.70
2023-02-08T12:50:03.198Z,36.60
2023-02-08T12:51:03.398Z,37.82
2023-02-08T12:52:03.624Z,37.41
2023-02-08T12:53:03.696Z,37.60